createdAt,value
2022-09-29T00:00:51.750Z,10.48
2022-09-29T00:03:30.846Z,10.57
2022-09-29T00:05:58.098Z,10.43
2022-09-29T00:08:27.648Z,12.20
2022-09-29T00:10:54.830Z,10.00
2022-09-29T00:13:22.648Z,8.85
2022-09-29T00:16:01.592Z,10.27
2022-09-29T00:18:30.412Z,9.35
2022-09-29T00:21:03.433Z,10.02
2022-09-29T00:23:32.339Z,10.68
2022-09-29T00:26:04.131Z,11.07
2022-09-29T00:28:31.927Z,8.20
2022-09-29T00:31:04.060Z,12.90
2022-09-29T00:33:33.752Z,8.88
2022-09-29T00:36:04.241Z,9.50
2022-09-29T00:38:31.838Z,8.57
2022-09-29T00:40:59.448Z,9.57
2022-09-29T00:44:00.996Z,7.75
2022-09-29T00:46:31.999Z,8.90
2022-09-29T00:49:12.499Z,7.32
2022-09-29T00:51:42.024Z,8.30
2022-09-29T00:54:10.618Z,6.90
2022-09-29T00:56:41.604Z,6.72
2022-09-29T00:59:15.791Z,6.70
2022-09-29T01:01:42.971Z,7.05
2022-09-29T01:04:16.433Z,8.45
2022-09-29T01:06:49.873Z,8.25
2022-09-29T01:09:25.577Z,7.68
2022-09-29T01:11:55.084Z,6.72
2022-09-29T01:14:22.877Z,6.80
2022-09-29T01:16:50.024Z,7.00
2022-09-29T01:19:41.079Z,8.10
2022-09-29T01:22:52.437Z,5.47
2022-09-29T01:25:34.777Z,6.63
2022-09-29T01:28:16.899Z,7.85
2022-09-29T01:30:50.176Z,7.32
2022-09-29T01:33:29.697Z,6.63
2022-09-29T01:36:06.089Z,7.90
2022-09-29T01:39:05.195Z,8.50
2022-09-29T01:41:53.463Z,7.35
2022-09-29T01:44:42.551Z,8.07
2022-09-29T01:47:16.597Z,9.80
2022-09-29T01:49:48.108Z,9.18
2022-09-29T01:52:23.763Z,9.15
2022-09-29T01:55:07.557Z,8.10
2022-09-29T01:57:46.534Z,7.93
2022-09-29T02:00:17.116Z,17.75
2022-09-29T02:03:05.099Z,7.70
2022-09-29T02:05:39.533Z,7.35
2022-09-29T02:08:15.100Z,8.60
2022-09-29T02:11:04.548Z,8.15
2022-09-29T02:13:36.661Z,8.90
2022-09-29T02:16:09.625Z,7.22
2022-09-29T02:18:44.127Z,6.15
2022-09-29T02:21:11.645Z,6.45
2022-09-29T02:23:38.886Z,6.30
2022-09-29T02:26:07.135Z,6.78
2022-09-29T02:28:34.987Z,6.15
2022-09-29T02:31:02.486Z,5.18
2022-09-29T02:33:29.687Z,6.95
2022-09-29T02:36:17.755Z,7.75
2022-09-29T02:39:27.401Z,6.82
2022-09-29T02:42:01.909Z,7.93
2022-09-29T02:44:53.464Z,7.97
2022-09-29T02:47:49.861Z,6.53
2022-09-29T02:50:39.954Z,7.25
2022-09-29T02:53:16.985Z,6.00
2022-09-29T02:56:03.869Z,6.50
2022-09-29T02:58:38.962Z,6.85
2022-09-29T03:01:07.652Z,7.05
2022-09-29T03:03:35.208Z,6.60
2022-09-29T03:06:02.611Z,8.30
2022-09-29T03:08:29.803Z,7.00
2022-09-29T03:10:57.157Z,6.65
2022-09-29T03:13:24.334Z,7.22
2022-09-29T03:15:51.612Z,6.88
2022-09-29T03:18:19.495Z,7.22
2022-09-29T03:20:46.677Z,5.32
2022-09-29T03:23:13.834Z,6.78
2022-09-29T03:25:42.010Z,5.70
2022-09-29T03:28:09.129Z,6.15
2022-09-29T03:30:36.285Z,6.43
2022-09-29T03:33:03.783Z,7.53
2022-09-29T03:35:30.970Z,7.82
2022-09-29T03:37:59.471Z,7.78
2022-09-29T03:40:28.061Z,6.60
2022-09-29T03:42:55.652Z,8.10
2022-09-29T03:45:22.936Z,6.22
2022-09-29T03:47:50.399Z,8.15
2022-09-29T03:50:17.589Z,5.53
2022-09-29T03:52:44.704Z,5.80
2022-09-29T03:55:12.047Z,6.40
2022-09-29T03:57:39.260Z,6.78
2022-09-29T04:00:06.867Z,6.25
2022-09-29T04:02:35.993Z,7.20
2022-09-29T04:05:03.382Z,7.13
2022-09-29T04:07:32.092Z,6.88
2022-09-29T04:09:59.445Z,7.00
2022-09-29T04:12:26.589Z,5.07
2022-09-29T04:14:53.890Z,6.85
2022-09-29T04:17:21.913Z,6.32
2022-09-29T04:19:49.046Z,5.95
2022-09-29T04:22:18.483Z,4.93
2022-09-29T04:24:48.152Z,6.03
2022-09-29T04:27:16.666Z,7.03
2022-09-29T04:29:44.458Z,5.75
2022-09-29T04:32:11.826Z,6.13
2022-09-29T04:34:39.182Z,6.47
2022-09-29T04:37:11.445Z,6.65
2022-09-29T04:39:39.175Z,7.07
2022-09-29T04:42:06.317Z,6.90
2022-09-29T04:44:33.812Z,8.55
2022-09-29T04:47:01.260Z,6.47
2022-09-29T04:49:28.586Z,7.15
2022-09-29T04:51:55.830Z,7.30
2022-09-29T04:54:23.182Z,7.78
2022-09-29T04:56:50.751Z,8.90
2022-09-29T04:59:18.111Z,7.82
2022-09-29T05:01:45.829Z,8.95
2022-09-29T05:04:13.788Z,7.40
2022-09-29T05:06:41.206Z,8.00
2022-09-29T05:09:09.076Z,8.50
2022-09-29T05:11:36.401Z,9.45
2022-09-29T05:14:04.261Z,8.40
2022-09-29T05:16:32.010Z,8.60
2022-09-29T05:18:59.443Z,11.10
2022-09-29T05:21:28.629Z,7.60
2022-09-29T05:23:57.084Z,8.77
2022-09-29T05:26:24.365Z,9.38
2022-09-29T05:28:51.768Z,7.38
2022-09-29T05:31:19.251Z,8.88
2022-09-29T05:33:46.579Z,9.75
2022-09-29T05:36:14.075Z,11.68
2022-09-29T05:38:41.585Z,9.15
2022-09-29T05:41:13.084Z,9.13
2022-09-29T05:43:40.888Z,8.60
2022-09-29T05:46:10.764Z,10.88
2022-09-29T05:48:38.353Z,11.50
2022-09-29T05:51:15.403Z,10.45
2022-09-29T05:53:44.462Z,10.90
2022-09-29T05:56:19.139Z,9.30
2022-09-29T05:58:46.879Z,9.52
2022-09-29T06:01:17.252Z,8.48
2022-09-29T06:03:45.246Z,8.18
2022-09-29T06:06:20.235Z,8.05
2022-09-29T06:08:48.736Z,10.45
2022-09-29T06:11:18.991Z,8.35
2022-09-29T06:13:48.355Z,8.38
2022-09-29T06:16:17.524Z,7.40
2022-09-29T06:18:44.973Z,7.18
2022-09-29T06:21:35.456Z,7.03
2022-09-29T06:24:04.006Z,6.72
2022-09-29T06:26:31.342Z,8.60
2022-09-29T06:28:58.766Z,4.85
2022-09-29T06:31:28.871Z,5.55
2022-09-29T06:34:00.787Z,5.03
2022-09-29T06:36:54.182Z,6.70
2022-09-29T06:39:21.573Z,6.45
2022-09-29T06:41:53.510Z,5.82
2022-09-29T06:46:48.771Z,8.05
2022-09-29T06:49:16.834Z,6.32
2022-09-29T06:51:46.365Z,5.30
2022-09-29T06:54:15.755Z,6.70
2022-09-29T06:56:46.421Z,8.05
2022-09-29T06:59:13.682Z,7.32
2022-09-29T07:01:40.919Z,8.20
2022-09-29T07:04:08.598Z,7.93
2022-09-29T07:06:35.785Z,9.82
2022-09-29T07:09:03.506Z,10.00
2022-09-29T07:11:30.903Z,8.85
2022-09-29T07:13:58.046Z,9.20
2022-09-29T07:16:25.748Z,10.07
2022-09-29T07:18:53.477Z,7.95
2022-09-29T07:21:22.202Z,6.25
2022-09-29T07:23:50.071Z,8.02
2022-09-29T07:26:18.164Z,6.57
2022-09-29T07:28:46.926Z,6.60
2022-09-29T07:31:17.249Z,6.90
2022-09-29T07:36:15.210Z,5.50
2022-09-29T07:38:42.558Z,6.72
2022-09-29T07:41:11.796Z,4.70
2022-09-29T07:43:40.078Z,4.85
2022-09-29T07:46:08.433Z,4.90
2022-09-29T07:48:37.752Z,4.10
2022-09-29T07:51:11.649Z,5.03
2022-09-29T07:53:40.049Z,5.97
2022-09-29T07:56:17.347Z,4.93
2022-09-29T07:58:50.211Z,8.50
2022-09-29T08:01:19.472Z,4.93
2022-09-29T08:03:53.339Z,3.72
2022-09-29T08:06:21.595Z,6.28
2022-09-29T08:09:00.541Z,4.38
2022-09-29T08:11:33.037Z,4.53
2022-09-29T08:14:01.514Z,6.40
2022-09-29T08:16:29.243Z,4.65
2022-09-29T08:18:56.492Z,4.55
2022-09-29T08:21:23.992Z,3.08
2022-09-29T08:23:51.319Z,6.22
2022-09-29T08:26:31.474Z,4.30
2022-09-29T08:29:08.601Z,4.78
2022-09-29T08:31:38.414Z,4.93
2022-09-29T08:34:06.820Z,4.22
2022-09-29T08:36:34.106Z,2.92
2022-09-29T08:39:01.347Z,4.50
2022-09-29T08:41:54.725Z,4.97
2022-09-29T08:44:42.334Z,4.07
2022-09-29T08:47:46.553Z,3.53
2022-09-29T08:50:33.125Z,4.35
2022-09-29T08:53:24.405Z,3.85
2022-09-29T08:55:58.715Z,4.68
2022-09-29T08:58:26.570Z,4.38
2022-09-29T09:01:18.597Z,6.07
2022-09-29T09:03:56.420Z,3.17
2022-09-29T09:06:42.970Z,3.53
2022-09-29T09:09:21.837Z,5.10
2022-09-29T09:11:51.806Z,4.05
2022-09-29T09:14:50.385Z,5.40
2022-09-29T09:17:32.759Z,4.38
2022-09-29T09:20:24.133Z,4.25
2022-09-29T09:22:55.744Z,4.60
2022-09-29T09:25:34.656Z,5.75
2022-09-29T09:28:14.014Z,4.70
2022-09-29T09:30:56.852Z,4.70
2022-09-29T09:33:44.989Z,5.70
2022-09-29T09:36:36.901Z,5.93
2022-09-29T09:39:25.628Z,6.75
2022-09-29T09:41:57.905Z,5.72
2022-09-29T09:44:35.121Z,6.50
2022-09-29T09:47:27.354Z,5.80
2022-09-29T09:52:32.247Z,5.10
2022-09-29T09:55:06.238Z,4.43
2022-09-29T09:58:06.009Z,7.03
2022-09-29T10:00:42.178Z,5.50
2022-09-29T10:03:10.961Z,5.22
2022-09-29T10:05:41.845Z,4.00
2022-09-29T10:08:29.727Z,5.13
2022-09-29T10:10:59.709Z,5.07
2022-09-29T10:13:29.979Z,7.07
2022-09-29T10:16:05.783Z,4.05
2022-09-29T10:18:41.071Z,4.15
2022-09-29T10:21:40.986Z,3.88
2022-09-29T10:24:33.616Z,4.18
2022-09-29T10:27:02.839Z,4.72
2022-09-29T10:29:45.788Z,5.43
2022-09-29T10:32:23.085Z,4.80
2022-09-29T10:34:57.035Z,5.85
2022-09-29T10:37:35.534Z,5.53
2022-09-29T10:40:18.518Z,5.93
2022-09-29T10:42:48.939Z,6.65
2022-09-29T10:45:25.593Z,5.70
2022-09-29T10:47:58.788Z,4.03
2022-09-29T10:50:37.504Z,5.50
2022-09-29T10:53:19.775Z,4.13
2022-09-29T10:55:56.878Z,4.50
2022-09-29T10:58:44.378Z,8.77
2022-09-29T11:01:17.768Z,3.47
2022-09-29T11:03:49.556Z,6.00
2022-09-29T11:06:17.625Z,3.83
2022-09-29T11:09:13.505Z,4.38
2022-09-29T11:11:59.370Z,4.78
2022-09-29T11:14:39.790Z,3.65
2022-09-29T11:17:31.470Z,3.28
2022-09-29T11:20:04.650Z,7.53
2022-09-29T11:23:15.434Z,4.18
2022-09-29T11:26:10.353Z,4.00
2022-09-29T11:28:52.987Z,4.72
2022-09-29T11:31:25.832Z,4.18
2022-09-29T11:34:15.379Z,4.97
2022-09-29T11:36:51.745Z,4.88
2022-09-29T11:39:55.614Z,7.90
2022-09-29T11:42:51.162Z,4.97
2022-09-29T11:45:24.086Z,4.15
2022-09-29T11:48:11.571Z,4.22
2022-09-29T11:50:49.424Z,5.25
2022-09-29T11:53:31.934Z,6.15
2022-09-29T11:56:33.529Z,5.03
2022-09-29T11:59:15.833Z,2.50
2022-09-29T12:02:01.752Z,3.00
2022-09-29T12:04:53.449Z,4.63
2022-09-29T12:07:35.886Z,8.90
2022-09-29T12:10:02.989Z,2.53
2022-09-29T12:12:55.574Z,4.53
2022-09-29T12:15:49.444Z,3.50
2022-09-29T12:18:40.890Z,4.70
2022-09-29T12:21:14.094Z,4.00
2022-09-29T12:23:46.101Z,4.05
2022-09-29T12:26:23.560Z,2.67
2022-09-29T12:29:34.859Z,3.30
2022-09-29T12:32:10.221Z,4.35
2022-09-29T12:35:01.189Z,3.75
2022-09-29T12:37:48.628Z,2.95
2022-09-29T12:40:46.306Z,3.67
2022-09-29T12:43:24.515Z,2.42
2022-09-29T12:46:00.873Z,2.80
2022-09-29T12:48:59.203Z,3.75
2022-09-29T12:51:34.998Z,2.83
2022-09-29T12:54:49.981Z,1.70
2022-09-29T12:57:31.256Z,2.10
2022-09-29T13:00:04.685Z,2.72
2022-09-29T13:03:07.388Z,2.05
2022-09-29T13:08:32.088Z,2.10
2022-09-29T13:10:59.871Z,4.50
2022-09-29T13:13:48.757Z,3.05
2022-09-29T13:16:47.279Z,3.22
2022-09-29T13:19:57.312Z,2.72
2022-09-29T13:22:44.269Z,1.92
2022-09-29T13:25:37.972Z,3.25
2022-09-29T13:28:33.982Z,3.00
2022-09-29T13:31:06.069Z,2.95
2022-09-29T13:33:34.503Z,2.47
2022-09-29T13:36:02.276Z,1.90
2022-09-29T13:38:37.557Z,1.77
2022-09-29T13:41:22.945Z,1.83
2022-09-29T13:43:50.246Z,2.30
2022-09-29T13:46:30.113Z,1.92
2022-09-29T13:49:09.686Z,6.07
2022-09-29T13:51:46.010Z,1.80
2022-09-29T13:54:21.497Z,4.13
2022-09-29T13:57:00.647Z,5.30
2022-09-29T13:59:29.126Z,4.93
2022-09-29T14:01:57.581Z,2.95
2022-09-29T14:04:45.473Z,3.60
2022-09-29T14:07:34.268Z,9.98
2022-09-29T14:10:14.003Z,3.30
2022-09-29T14:12:42.148Z,3.75
2022-09-29T14:15:17.800Z,5.32
2022-09-29T14:17:54.952Z,2.35
2022-09-29T14:20:28.701Z,2.45
2022-09-29T14:23:01.744Z,4.40
2022-09-29T14:25:36.330Z,3.80
2022-09-29T14:28:10.215Z,3.17
2022-09-29T14:30:37.441Z,2.63
2022-09-29T14:33:16.900Z,2.78
2022-09-29T14:36:02.722Z,1.85
2022-09-29T14:38:34.352Z,2.13
2022-09-29T14:41:03.388Z,2.78
2022-09-29T14:43:40.855Z,2.45
2022-09-29T14:46:38.850Z,2.35
2022-09-29T14:50:01.702Z,4.38
2022-09-29T14:52:43.072Z,4.63
2022-09-29T14:55:50.043Z,2.33
2022-09-29T14:58:28.952Z,2.00
2022-09-29T15:01:17.843Z,4.32
2022-09-29T15:03:48.611Z,5.22
2022-09-29T15:06:24.066Z,2.78
2022-09-29T15:08:57.772Z,2.22
2022-09-29T15:11:29.396Z,2.83
2022-09-29T15:13:58.548Z,4.32
2022-09-29T15:16:52.809Z,3.47
2022-09-29T15:19:41.520Z,3.20
2022-09-29T15:22:20.718Z,5.57
2022-09-29T15:25:16.143Z,3.45
2022-09-29T15:27:47.805Z,3.58
2022-09-29T15:30:18.189Z,4.00
2022-09-29T15:32:48.397Z,3.13
2022-09-29T15:35:26.020Z,3.55
2022-09-29T15:38:16.496Z,3.33
2022-09-29T15:40:46.093Z,3.72
2022-09-29T15:43:28.146Z,4.43
2022-09-29T15:48:29.309Z,4.93
2022-09-29T15:50:58.384Z,6.78
2022-09-29T15:53:27.819Z,4.60
2022-09-29T15:55:55.953Z,5.72
2022-09-29T15:58:26.148Z,5.13
2022-09-29T16:01:06.604Z,3.65
2022-09-29T16:03:50.818Z,6.32
2022-09-29T16:06:24.737Z,6.00
2022-09-29T16:08:56.319Z,4.90
2022-09-29T16:11:26.632Z,7.68
2022-09-29T16:14:00.186Z,5.60
2022-09-29T16:16:32.324Z,7.65
2022-09-29T16:19:04.613Z,5.43
2022-09-29T16:21:37.402Z,5.00
2022-09-29T16:24:18.990Z,4.55
2022-09-29T16:26:52.826Z,4.72
2022-09-29T16:29:20.204Z,4.05
2022-09-29T16:31:48.717Z,3.88
2022-09-29T16:34:22.065Z,4.50
2022-09-29T16:36:54.179Z,4.18
2022-09-29T16:41:55.955Z,5.00
2022-09-29T16:44:30.270Z,4.47
2022-09-29T16:47:12.784Z,4.15
2022-09-29T16:49:50.901Z,4.25
2022-09-29T16:52:27.039Z,5.07
2022-09-29T16:55:07.955Z,5.60
2022-09-29T16:57:36.352Z,5.57
2022-09-29T17:00:12.822Z,5.68
2022-09-29T17:02:40.607Z,7.47
2022-09-29T17:05:08.376Z,6.40
2022-09-29T17:07:41.679Z,6.65
2022-09-29T17:10:17.113Z,6.75
2022-09-29T17:12:44.276Z,12.52
2022-09-29T17:15:18.497Z,6.57
2022-09-29T17:17:47.569Z,6.15
2022-09-29T17:20:18.271Z,9.43
2022-09-29T17:22:46.058Z,6.72
2022-09-29T17:25:14.011Z,10.23
2022-09-29T17:28:03.250Z,5.82
2022-09-29T17:30:30.537Z,6.10
2022-09-29T17:32:59.324Z,7.70
2022-09-29T17:35:51.695Z,7.10
2022-09-29T17:38:22.127Z,7.70
2022-09-29T17:40:55.866Z,6.25
2022-09-29T17:43:24.700Z,6.30
2022-09-29T17:45:54.645Z,9.35
2022-09-29T17:48:22.694Z,7.57
2022-09-29T17:50:52.837Z,10.82
2022-09-29T17:53:20.068Z,5.30
2022-09-29T17:55:49.926Z,6.63
2022-09-29T17:58:19.441Z,5.53
2022-09-29T18:00:49.404Z,6.15
2022-09-29T18:03:19.059Z,5.45
2022-09-29T18:05:49.675Z,5.95
2022-09-29T18:08:19.198Z,9.02
2022-09-29T18:11:04.502Z,8.68
2022-09-29T18:13:32.093Z,8.98
2022-09-29T18:16:00.903Z,7.45
2022-09-29T18:18:28.427Z,5.63
2022-09-29T18:20:55.808Z,10.63
2022-09-29T18:23:24.149Z,8.27
2022-09-29T18:25:52.891Z,8.20
2022-09-29T18:28:20.741Z,13.98
2022-09-29T18:30:52.281Z,9.25
2022-09-29T18:33:21.047Z,8.02
2022-09-29T18:35:53.225Z,7.60
2022-09-29T18:38:21.157Z,11.13
2022-09-29T18:40:51.105Z,8.98
2022-09-29T18:43:18.491Z,10.80
2022-09-29T18:45:45.678Z,13.02
2022-09-29T18:48:15.659Z,16.55
2022-09-29T18:50:45.940Z,15.57
2022-09-29T18:53:16.375Z,13.30
2022-09-29T18:55:44.009Z,15.32
2022-09-29T18:58:19.482Z,20.88
2022-09-29T19:00:50.324Z,26.38
2022-09-29T19:03:19.325Z,22.73
2022-09-29T19:05:48.046Z,23.52
2022-09-29T19:08:17.640Z,13.48
2022-09-29T19:10:51.429Z,13.57
2022-09-29T19:13:19.314Z,15.07
2022-09-29T19:15:47.542Z,9.45
2022-09-29T19:18:22.472Z,9.18
2022-09-29T19:20:52.215Z,10.70
2022-09-29T19:23:19.707Z,9.73
2022-09-29T19:25:48.482Z,11.85
2022-09-29T19:28:16.866Z,12.10
2022-09-29T19:30:44.653Z,11.55
2022-09-29T19:33:15.119Z,11.32
2022-09-29T19:35:54.870Z,11.77
2022-09-29T19:38:22.861Z,11.00
2022-09-29T19:40:51.794Z,12.30
2022-09-29T19:43:21.611Z,10.18
2022-09-29T19:45:50.244Z,10.65
2022-09-29T19:48:21.476Z,11.70
2022-09-29T19:51:15.585Z,13.05
2022-09-29T19:53:45.843Z,13.07
2022-09-29T19:56:17.245Z,10.82
2022-09-29T19:58:45.070Z,13.07
2022-09-29T20:01:12.942Z,11.90
2022-09-29T20:03:40.410Z,11.70
2022-09-29T20:06:09.107Z,12.52
2022-09-29T20:08:36.335Z,12.57
2022-09-29T20:11:11.225Z,13.85
2022-09-29T20:13:39.494Z,10.40
2022-09-29T20:16:07.872Z,12.95
2022-09-29T20:18:37.631Z,12.63
2022-09-29T20:21:15.150Z,12.00
2022-09-29T20:23:42.367Z,10.57
2022-09-29T20:26:09.820Z,12.40
2022-09-29T20:28:37.508Z,13.13
2022-09-29T20:31:07.652Z,16.13
2022-09-29T20:33:36.565Z,9.20
2022-09-29T20:36:04.726Z,14.38
2022-09-29T20:38:36.892Z,12.68
2022-09-29T20:41:04.434Z,16.00
2022-09-29T20:43:34.676Z,15.57
2022-09-29T20:46:07.516Z,13.32
2022-09-29T20:48:37.313Z,13.43
2022-09-29T20:51:06.400Z,13.82
2022-09-29T20:53:40.619Z,12.40
2022-09-29T20:56:17.119Z,14.52
2022-09-29T20:58:45.937Z,12.90
2022-09-29T21:01:22.071Z,11.93
2022-09-29T21:03:54.516Z,14.20
2022-09-29T21:06:24.671Z,13.25
2022-09-29T21:08:52.012Z,13.60
2022-09-29T21:11:19.343Z,14.07
2022-09-29T21:13:48.989Z,12.70
2022-09-29T21:16:16.180Z,15.10
2022-09-29T21:18:43.934Z,13.15
2022-09-29T21:21:11.984Z,12.77
2022-09-29T21:23:40.532Z,17.17
2022-09-29T21:26:17.520Z,14.45
2022-09-29T21:28:51.494Z,11.68
2022-09-29T21:31:21.755Z,14.65
2022-09-29T21:33:55.505Z,11.80
2022-09-29T21:36:25.626Z,13.07
2022-09-29T21:38:53.645Z,15.93
2022-09-29T21:41:22.709Z,10.77
2022-09-29T21:43:52.931Z,10.55
2022-09-29T21:46:23.354Z,12.60
2022-09-29T21:48:58.786Z,10.45
2022-09-29T21:51:29.653Z,11.32
2022-09-29T21:53:58.967Z,14.93
2022-09-29T21:56:28.974Z,11.60
2022-09-29T21:58:57.078Z,10.52
2022-09-29T22:01:25.289Z,11.10
2022-09-29T22:03:54.642Z,12.23
2022-09-29T22:06:31.267Z,10.93
2022-09-29T22:08:59.842Z,13.38
2022-09-29T22:11:33.226Z,13.13
2022-09-29T22:14:01.480Z,11.35
2022-09-29T22:16:31.379Z,16.70
2022-09-29T22:19:22.050Z,13.50
2022-09-29T22:21:47.713Z,11.43
2022-09-29T22:24:16.039Z,13.05
2022-09-29T22:26:43.186Z,14.15
2022-09-29T22:29:10.834Z,12.20
2022-09-29T22:31:40.536Z,11.07
2022-09-29T22:34:11.239Z,15.43
2022-09-29T22:36:39.499Z,11.68
2022-09-29T22:39:07.578Z,13.40
2022-09-29T22:41:37.045Z,12.77
2022-09-29T22:44:07.923Z,12.90
2022-09-29T22:46:35.632Z,15.73
2022-09-29T22:49:03.770Z,14.00
2022-09-29T22:51:31.392Z,13.00
2022-09-29T22:53:59.106Z,15.68
2022-09-29T22:56:29.028Z,13.38
2022-09-29T22:59:04.642Z,12.50
2022-09-29T23:01:33.598Z,14.63
2022-09-29T23:04:01.923Z,14.70
2022-09-29T23:06:29.241Z,16.77
2022-09-29T23:08:56.501Z,16.25
2022-09-29T23:11:24.233Z,14.38
2022-09-29T23:13:55.153Z,15.98
2022-09-29T23:16:22.341Z,16.20
2022-09-29T23:18:53.470Z,16.90
2022-09-29T23:21:21.691Z,16.43
2022-09-29T23:23:54.145Z,14.70
2022-09-29T23:26:22.362Z,14.93
2022-09-29T23:28:49.647Z,15.93
2022-09-29T23:31:16.865Z,13.85
2022-09-29T23:33:44.610Z,15.48
2022-09-29T23:36:14.117Z,14.52
2022-09-29T23:39:01.995Z,15.93
2022-09-29T23:41:30.532Z,16.15
2022-09-29T23:44:00.345Z,19.48
2022-09-29T23:46:31.597Z,17.95
2022-09-29T23:51:31.146Z,15.75
2022-09-29T23:53:59.596Z,20.55
2022-09-29T23:56:27.826Z,16.58
2022-09-29T23:58:55.455Z,18.27
